Brentwood, New Hampshire
Current Conditions -  °F | °C
As of 11:27 AM on Wednesday 26 Nov 2014 (Local Time) from KPSM Reporting Station
Light Snow Light Snow  
Wind Chill: 30°   Ceiling: 1200
Heat Index: 37°   Visibility: 4mi
Dew Point: 32°   Wind: 10mph
Humidity: 81%   Direction: 360°N
Pressure: 30.17"   Gusts: NA
Location:  42.9832°N, 70.9915°W
Report Text: KPSM 261627Z 36009KT 4SM -RASN SCT007 OVC012 03/00 A3017 RMK AO2A
Loading
Personal Weather Stations






























Interactive Weather Map New forecast layout! Learn more

10-Day Weather Forecast

Advertisements
Track Severe Weather on mobile